sensor_id;sensor_type;location;lat;lon;timestamp;temperature;humidity
2639;DHT22;1329;51.384;7.122;2022-09-02T00:00:02;19.00;1.00
2639;DHT22;1329;51.384;7.122;2022-09-02T00:02:32;18.90;1.00
2639;DHT22;1329;51.384;7.122;2022-09-02T00:04:59;18.90;1.00
2639;DHT22;1329;51.384;7.122;2022-09-02T00:07:28;18.90;1.00
2639;DHT22;1329;51.384;7.122;2022-09-02T00:09:56;18.90;1.00
2639;DHT22;1329;51.384;7.122;2022-09-02T00:12:26;18.90;1.00
2639;DHT22;1329;51.384;7.122;2022-09-02T00:14:53;18.90;1.00
2639;DHT22;1329;51.384;7.122;2022-09-02T00:17:20;18.90;1.00
2639;DHT22;1329;51.384;7.122;2022-09-02T00:19:48;18.80;1.00
2639;DHT22;1329;51.384;7.122;2022-09-02T00:22:16;18.70;1.00
2639;DHT22;1329;51.384;7.122;2022-09-02T00:24:45;18.70;1.00
2639;DHT22;1329;51.384;7.122;2022-09-02T00:27:12;18.70;1.00
2639;DHT22;1329;51.384;7.122;2022-09-02T00:29:39;18.60;1.00
2639;DHT22;1329;51.384;7.122;2022-09-02T00:32:07;18.60;1.00
2639;DHT22;1329;51.384;7.122;2022-09-02T00:34:34;18.60;1.00
2639;DHT22;1329;51.384;7.122;2022-09-02T00:37:04;18.60;1.00
2639;DHT22;1329;51.384;7.122;2022-09-02T00:39:31;18.50;1.00
2639;DHT22;1329;51.384;7.122;2022-09-02T00:42:00;18.50;1.00
2639;DHT22;1329;51.384;7.122;2022-09-02T00:44:31;18.50;1.00
2639;DHT22;1329;51.384;7.122;2022-09-02T00:46:59;18.50;1.00
2639;DHT22;1329;51.384;7.122;2022-09-02T00:49:29;18.50;1.00
2639;DHT22;1329;51.384;7.122;2022-09-02T00:52:03;18.50;1.00
2639;DHT22;1329;51.384;7.122;2022-09-02T00:54:35;18.50;1.00
2639;DHT22;1329;51.384;7.122;2022-09-02T00:57:10;18.50;1.00
2639;DHT22;1329;51.384;7.122;2022-09-02T00:59:47;18.50;1.00
2639;DHT22;1329;51.384;7.122;2022-09-02T01:02:17;18.60;1.00
2639;DHT22;1329;51.384;7.122;2022-09-02T01:04:48;18.50;1.00
2639;DHT22;1329;51.384;7.122;2022-09-02T01:07:16;18.50;1.00
2639;DHT22;1329;51.384;7.122;2022-09-02T01:09:46;18.50;1.00
2639;DHT22;1329;51.384;7.122;2022-09-02T01:12:14;18.60;1.00
2639;DHT22;1329;51.384;7.122;2022-09-02T01:14:42;18.60;1.00
2639;DHT22;1329;51.384;7.122;2022-09-02T01:17:10;18.60;1.00
2639;DHT22;1329;51.384;7.122;2022-09-02T01:19:41;18.60;1.00
2639;DHT22;1329;51.384;7.122;2022-09-02T01:22:18;18.70;1.00
2639;DHT22;1329;51.384;7.122;2022-09-02T01:24:47;18.60;1.00
2639;DHT22;1329;51.384;7.122;2022-09-02T01:27:16;18.60;1.00
2639;DHT22;1329;51.384;7.122;2022-09-02T01:29:45;18.60;1.00
2639;DHT22;1329;51.384;7.122;2022-09-02T01:32:17;18.60;1.00
2639;DHT22;1329;51.384;7.122;2022-09-02T01:34:44;18.60;1.00
2639;DHT22;1329;51.384;7.122;2022-09-02T01:37:11;18.60;1.00
2639;DHT22;1329;51.384;7.122;2022-09-02T01:39:41;18.60;1.00
2639;DHT22;1329;51.384;7.122;2022-09-02T01:42:09;18.60;1.00
2639;DHT22;1329;51.384;7.122;2022-09-02T01:44:37;18.50;1.00
2639;DHT22;1329;51.384;7.122;2022-09-02T01:47:11;18.50;1.00
2639;DHT22;1329;51.384;7.122;2022-09-02T01:49:39;18.50;1.00
2639;DHT22;1329;51.384;7.122;2022-09-02T01:52:07;18.40;1.00
2639;DHT22;1329;51.384;7.122;2022-09-02T01:54:35;18.50;1.00
2639;DHT22;1329;51.384;7.122;2022-09-02T01:57:04;18.50;1.00
2639;DHT22;1329;51.384;7.122;2022-09-02T01:59:31;18.50;1.00
2639;DHT22;1329;51.384;7.122;2022-09-02T02:01:59;18.50;1.00
2639;DHT22;1329;51.384;7.122;2022-09-02T02:04:26;18.50;1.00
2639;DHT22;1329;51.384;7.122;2022-09-02T02:06:54;18.50;1.00
2639;DHT22;1329;51.384;7.122;2022-09-02T02:09:22;18.40;1.00
2639;DHT22;1329;51.384;7.122;2022-09-02T02:11:49;18.50;1.00
2639;DHT22;1329;51.384;7.122;2022-09-02T02:14:19;18.50;1.00
2639;DHT22;1329;51.384;7.122;2022-09-02T02:16:50;18.50;1.00
2639;DHT22;1329;51.384;7.122;2022-09-02T02:19:17;18.50;1.00
2639;DHT22;1329;51.384;7.122;2022-09-02T02:21:44;18.50;1.00
2639;DHT22;1329;51.384;7.122;2022-09-02T02:24:12;18.50;1.00
2639;DHT22;1329;51.384;7.122;2022-09-02T02:26:40;18.50;1.00
2639;DHT22;1329;51.384;7.122;2022-09-02T02:29:11;18.50;1.00
2639;DHT22;1329;51.384;7.122;2022-09-02T02:31:40;18.40;1.00
2639;DHT22;1329;51.384;7.122;2022-09-02T02:34:10;18.50;1.00
2639;DHT22;1329;51.384;7.122;2022-09-02T02:36:39;18.40;1.00
2639;DHT22;1329;51.384;7.122;2022-09-02T02:39:08;18.50;1.00
2639;DHT22;1329;51.384;7.122;2022-09-02T02:41:37;18.40;1.00
2639;DHT22;1329;51.384;7.122;2022-09-02T02:44:05;18.40;1.00
2639;DHT22;1329;51.384;7.122;2022-09-02T02:46:33;18.40;1.00
2639;DHT22;1329;51.384;7.122;2022-09-02T02:49:03;18.40;1.00
2639;DHT22;1329;51.384;7.122;2022-09-02T02:51:32;18.40;1.00
2639;DHT22;1329;51.384;7.122;2022-09-02T02:54:00;18.40;1.00
2639;DHT22;1329;51.384;7.122;2022-09-02T02:56:30;18.40;1.00
2639;DHT22;1329;51.384;7.122;2022-09-02T02:59:00;18.40;1.00
2639;DHT22;1329;51.384;7.122;2022-09-02T03:01:29;18.40;1.00
2639;DHT22;1329;51.384;7.122;2022-09-02T03:03:57;18.40;1.00
2639;DHT22;1329;51.384;7.122;2022-09-02T03:06:26;18.40;1.00
2639;DHT22;1329;51.384;7.122;2022-09-02T03:08:53;18.50;1.00
2639;DHT22;1329;51.384;7.122;2022-09-02T03:11:22;18.50;1.00
2639;DHT22;1329;51.384;7.122;2022-09-02T03:13:51;18.50;1.00
2639;DHT22;1329;51.384;7.122;2022-09-02T03:16:19;18.50;1.00
2639;DHT22;1329;51.384;7.122;2022-09-02T03:18:49;18.50;1.00
2639;DHT22;1329;51.384;7.122;2022-09-02T03:21:17;18.50;1.00
2639;DHT22;1329;51.384;7.122;2022-09-02T03:23:46;18.50;1.00
2639;DHT22;1329;51.384;7.122;2022-09-02T03:26:18;18.50;1.00
2639;DHT22;1329;51.384;7.122;2022-09-02T03:28:50;18.40;1.00
2639;DHT22;1329;51.384;7.122;2022-09-02T03:31:20;18.50;1.00
2639;DHT22;1329;51.384;7.122;2022-09-02T03:33:49;18.50;1.00
2639;DHT22;1329;51.384;7.122;2022-09-02T03:36:22;18.50;1.00
2639;DHT22;1329;51.384;7.122;2022-09-02T03:38:53;18.40;1.00
2639;DHT22;1329;51.384;7.122;2022-09-02T03:41:21;18.40;1.00
2639;DHT22;1329;51.384;7.122;2022-09-02T03:43:49;18.50;1.00
2639;DHT22;1329;51.384;7.122;2022-09-02T03:46:17;18.40;1.00
2639;DHT22;1329;51.384;7.122;2022-09-02T03:48:45;18.40;1.00
2639;DHT22;1329;51.384;7.122;2022-09-02T03:51:16;18.40;1.00
2639;DHT22;1329;51.384;7.122;2022-09-02T03:53:44;18.40;1.00
2639;DHT22;1329;51.384;7.122;2022-09-02T03:56:13;18.40;1.00
2639;DHT22;1329;51.384;7.122;2022-09-02T03:58:42;18.40;1.00
2639;DHT22;1329;51.384;7.122;2022-09-02T04:01:13;18.30;1.00
2639;DHT22;1329;51.384;7.122;2022-09-02T04:03:41;18.40;1.00
2639;DHT22;1329;51.384;7.122;2022-09-02T04:06:10;18.30;1.00
2639;DHT22;1329;51.384;7.122;2022-09-02T04:08:41;18.30;1.00
2639;DHT22;1329;51.384;7.122;2022-09-02T04:11:11;18.30;1.00
2639;DHT22;1329;51.384;7.122;2022-09-02T04:13:43;18.20;1.00
2639;DHT22;1329;51.384;7.122;2022-09-02T04:16:12;18.20;1.00
2639;DHT22;1329;51.384;7.122;2022-09-02T04:18:41;18.20;1.00
2639;DHT22;1329;51.384;7.122;2022-09-02T04:21:11;18.10;1.00
2639;DHT22;1329;51.384;7.122;2022-09-02T04:23:39;18.10;1.00
2639;DHT22;1329;51.384;7.122;2022-09-02T04:26:11;18.00;1.00
2639;DHT22;1329;51.384;7.122;2022-09-02T04:28:42;18.10;1.00
2639;DHT22;1329;51.384;7.122;2022-09-02T04:31:14;18.00;1.00
2639;DHT22;1329;51.384;7.122;2022-09-02T04:33:44;18.00;1.00
2639;DHT22;1329;51.384;7.122;2022-09-02T04:36:14;18.00;1.00
2639;DHT22;1329;51.384;7.122;2022-09-02T04:38:43;18.00;1.00
2639;DHT22;1329;51.384;7.122;2022-09-02T04:41:15;17.90;1.00
2639;DHT22;1329;51.384;7.122;2022-09-02T04:43:45;17.90;1.00
2639;DHT22;1329;51.384;7.122;2022-09-02T04:46:14;17.90;1.00
2639;DHT22;1329;51.384;7.122;2022-09-02T04:48:43;17.90;1.00
2639;DHT22;1329;51.384;7.122;2022-09-02T04:51:14;17.90;1.00
2639;DHT22;1329;51.384;7.122;2022-09-02T04:53:47;17.90;1.00
2639;DHT22;1329;51.384;7.122;2022-09-02T04:56:20;17.90;1.00
2639;DHT22;1329;51.384;7.122;2022-09-02T04:58:53;17.80;1.00
2639;DHT22;1329;51.384;7.122;2022-09-02T05:01:24;17.80;1.00
2639;DHT22;1329;51.384;7.122;2022-09-02T05:03:56;17.80;1.00
2639;DHT22;1329;51.384;7.122;2022-09-02T05:06:25;17.80;1.00
2639;DHT22;1329;51.384;7.122;2022-09-02T05:08:54;17.70;1.00
2639;DHT22;1329;51.384;7.122;2022-09-02T05:11:26;17.70;1.00
2639;DHT22;1329;51.384;7.122;2022-09-02T05:13:58;17.70;1.00
2639;DHT22;1329;51.384;7.122;2022-09-02T05:16:28;17.60;1.00
2639;DHT22;1329;51.384;7.122;2022-09-02T05:18:58;17.60;1.00
2639;DHT22;1329;51.384;7.122;2022-09-02T05:21:26;17.60;1.00
2639;DHT22;1329;51.384;7.122;2022-09-02T05:24:02;17.60;1.00
2639;DHT22;1329;51.384;7.122;2022-09-02T05:26:30;17.60;1.00
2639;DHT22;1329;51.384;7.122;2022-09-02T05:29:02;17.60;1.00
2639;DHT22;1329;51.384;7.122;2022-09-02T05:31:31;17.60;1.00
2639;DHT22;1329;51.384;7.122;2022-09-02T05:33:59;17.60;1.00
2639;DHT22;1329;51.384;7.122;2022-09-02T05:36:27;17.60;1.00
2639;DHT22;1329;51.384;7.122;2022-09-02T05:38:57;17.60;1.00
2639;DHT22;1329;51.384;7.122;2022-09-02T05:41:25;17.70;1.00
2639;DHT22;1329;51.384;7.122;2022-09-02T05:43:58;17.70;1.00
2639;DHT22;1329;51.384;7.122;2022-09-02T05:46:35;17.70;1.00
2639;DHT22;1329;51.384;7.122;2022-09-02T05:49:05;17.80;1.00
2639;DHT22;1329;51.384;7.122;2022-09-02T05:51:44;17.80;1.00
2639;DHT22;1329;51.384;7.122;2022-09-02T05:54:15;17.90;1.00
2639;DHT22;1329;51.384;7.122;2022-09-02T05:56:47;18.00;1.00
2639;DHT22;1329;51.384;7.122;2022-09-02T05:59:17;18.00;1.00
2639;DHT22;1329;51.384;7.122;2022-09-02T06:01:47;18.10;1.00
2639;DHT22;1329;51.384;7.122;2022-09-02T06:04:18;18.20;1.00
2639;DHT22;1329;51.384;7.122;2022-09-02T06:06:46;18.30;1.00
2639;DHT22;1329;51.384;7.122;2022-09-02T06:09:19;18.30;1.00
2639;DHT22;1329;51.384;7.122;2022-09-02T06:11:48;18.40;1.00
2639;DHT22;1329;51.384;7.122;2022-09-02T06:14:21;18.40;1.00
2639;DHT22;1329;51.384;7.122;2022-09-02T06:16:52;18.40;1.00
2639;DHT22;1329;51.384;7.122;2022-09-02T06:19:24;18.50;1.00
2639;DHT22;1329;51.384;7.122;2022-09-02T06:21:58;18.50;1.00
2639;DHT22;1329;51.384;7.122;2022-09-02T06:24:26;18.60;1.00
2639;DHT22;1329;51.384;7.122;2022-09-02T06:26:54;18.60;1.00
2639;DHT22;1329;51.384;7.122;2022-09-02T06:29:24;18.70;1.00
2639;DHT22;1329;51.384;7.122;2022-09-02T06:31:53;18.80;1.00
2639;DHT22;1329;51.384;7.122;2022-09-02T06:34:23;18.80;1.00
2639;DHT22;1329;51.384;7.122;2022-09-02T06:36:52;18.90;1.00
2639;DHT22;1329;51.384;7.122;2022-09-02T06:39:23;18.90;1.00
2639;DHT22;1329;51.384;7.122;2022-09-02T06:41:54;19.00;1.00
2639;DHT22;1329;51.384;7.122;2022-09-02T06:44:21;19.00;1.00
2639;DHT22;1329;51.384;7.122;2022-09-02T06:46:57;19.10;1.00
2639;DHT22;1329;51.384;7.122;2022-09-02T06:49:25;19.20;1.00
2639;DHT22;1329;51.384;7.122;2022-09-02T06:51:56;19.20;1.00
2639;DHT22;1329;51.384;7.122;2022-09-02T06:54:25;19.30;1.00
2639;DHT22;1329;51.384;7.122;2022-09-02T06:56:57;19.30;1.00
2639;DHT22;1329;51.384;7.122;2022-09-02T06:59:25;19.30;1.00
2639;DHT22;1329;51.384;7.122;2022-09-02T07:01:53;19.50;1.00
2639;DHT22;1329;51.384;7.122;2022-09-02T07:04:22;19.60;1.00
2639;DHT22;1329;51.384;7.122;2022-09-02T07:07:08;19.60;1.00
2639;DHT22;1329;51.384;7.122;2022-09-02T07:09:36;19.70;1.00
2639;DHT22;1329;51.384;7.122;2022-09-02T07:12:05;19.70;1.00
2639;DHT22;1329;51.384;7.122;2022-09-02T07:14:36;19.80;1.00
2639;DHT22;1329;51.384;7.122;2022-09-02T07:17:06;19.90;1.00
2639;DHT22;1329;51.384;7.122;2022-09-02T07:19:34;20.00;1.00
2639;DHT22;1329;51.384;7.122;2022-09-02T07:22:03;20.10;1.00
2639;DHT22;1329;51.384;7.122;2022-09-02T07:24:30;20.20;1.00
2639;DHT22;1329;51.384;7.122;2022-09-02T07:26:58;20.30;1.00
2639;DHT22;1329;51.384;7.122;2022-09-02T07:29:25;20.30;1.00
2639;DHT22;1329;51.384;7.122;2022-09-02T07:31:57;20.40;1.00
2639;DHT22;1329;51.384;7.122;2022-09-02T07:34:26;20.50;1.00
2639;DHT22;1329;51.384;7.122;2022-09-02T07:36:54;20.60;1.00
2639;DHT22;1329;51.384;7.122;2022-09-02T07:39:22;20.70;1.00
2639;DHT22;1329;51.384;7.122;2022-09-02T07:41:52;20.70;1.00
2639;DHT22;1329;51.384;7.122;2022-09-02T07:44:20;20.80;1.00
2639;DHT22;1329;51.384;7.122;2022-09-02T07:46:48;20.90;1.00
2639;DHT22;1329;51.384;7.122;2022-09-02T07:49:17;20.90;1.00
2639;DHT22;1329;51.384;7.122;2022-09-02T07:51:48;21.00;1.00
2639;DHT22;1329;51.384;7.122;2022-09-02T07:54:19;21.10;1.00
2639;DHT22;1329;51.384;7.122;2022-09-02T07:56:50;21.20;1.00
2639;DHT22;1329;51.384;7.122;2022-09-02T07:59:19;21.30;1.00
2639;DHT22;1329;51.384;7.122;2022-09-02T08:01:51;21.30;1.00
2639;DHT22;1329;51.384;7.122;2022-09-02T08:04:21;21.50;1.00
2639;DHT22;1329;51.384;7.122;2022-09-02T08:06:55;21.50;1.00
2639;DHT22;1329;51.384;7.122;2022-09-02T08:09:24;21.60;1.00
2639;DHT22;1329;51.384;7.122;2022-09-02T08:11:52;21.70;1.00
2639;DHT22;1329;51.384;7.122;2022-09-02T08:14:23;21.80;1.00
2639;DHT22;1329;51.384;7.122;2022-09-02T08:16:54;21.80;1.00
2639;DHT22;1329;51.384;7.122;2022-09-02T08:19:23;21.80;1.00
2639;DHT22;1329;51.384;7.122;2022-09-02T08:21:53;21.90;1.00
2639;DHT22;1329;51.384;7.122;2022-09-02T08:24:21;21.90;1.00
2639;DHT22;1329;51.384;7.122;2022-09-02T08:26:48;21.90;1.00
2639;DHT22;1329;51.384;7.122;2022-09-02T08:29:18;22.00;1.00
2639;DHT22;1329;51.384;7.122;2022-09-02T08:31:45;22.10;1.00
2639;DHT22;1329;51.384;7.122;2022-09-02T08:34:13;22.10;1.00
2639;DHT22;1329;51.384;7.122;2022-09-02T08:36:40;22.10;1.00
2639;DHT22;1329;51.384;7.122;2022-09-02T08:39:10;22.20;1.00
2639;DHT22;1329;51.384;7.122;2022-09-02T08:41:44;22.20;1.00
2639;DHT22;1329;51.384;7.122;2022-09-02T08:44:19;22.30;1.00
2639;DHT22;1329;51.384;7.122;2022-09-02T08:46:49;22.30;1.00
2639;DHT22;1329;51.384;7.122;2022-09-02T08:49:24;22.40;1.00
2639;DHT22;1329;51.384;7.122;2022-09-02T08:51:57;22.50;1.00
2639;DHT22;1329;51.384;7.122;2022-09-02T08:54:30;22.60;1.00
2639;DHT22;1329;51.384;7.122;2022-09-02T08:57:00;22.60;1.00
2639;DHT22;1329;51.384;7.122;2022-09-02T08:59:29;22.70;1.00
2639;DHT22;1329;51.384;7.122;2022-09-02T09:02:04;22.80;1.00
2639;DHT22;1329;51.384;7.122;2022-09-02T09:04:52;22.90;1.00
2639;DHT22;1329;51.384;7.122;2022-09-02T09:07:38;23.10;1.00
2639;DHT22;1329;51.384;7.122;2022-09-02T09:10:19;23.20;1.00
2639;DHT22;1329;51.384;7.122;2022-09-02T09:12:59;23.30;1.00
2639;DHT22;1329;51.384;7.122;2022-09-02T09:15:39;23.30;1.00
2639;DHT22;1329;51.384;7.122;2022-09-02T09:18:15;23.40;1.00
2639;DHT22;1329;51.384;7.122;2022-09-02T09:20:44;23.50;1.00
2639;DHT22;1329;51.384;7.122;2022-09-02T09:23:23;23.60;1.00
2639;DHT22;1329;51.384;7.122;2022-09-02T09:26:03;23.60;1.00
2639;DHT22;1329;51.384;7.122;2022-09-02T09:28:37;23.60;1.00
2639;DHT22;1329;51.384;7.122;2022-09-02T09:31:11;23.70;1.00
2639;DHT22;1329;51.384;7.122;2022-09-02T09:33:54;23.80;1.00
2639;DHT22;1329;51.384;7.122;2022-09-02T09:36:48;23.80;1.00
2639;DHT22;1329;51.384;7.122;2022-09-02T09:39:21;23.90;1.00
2639;DHT22;1329;51.384;7.122;2022-09-02T09:41:52;23.90;1.00
2639;DHT22;1329;51.384;7.122;2022-09-02T09:44:34;23.90;1.00
2639;DHT22;1329;51.384;7.122;2022-09-02T09:47:13;23.90;1.00
2639;DHT22;1329;51.384;7.122;2022-09-02T09:49:44;23.90;1.00
2639;DHT22;1329;51.384;7.122;2022-09-02T09:52:21;23.90;1.00
2639;DHT22;1329;51.384;7.122;2022-09-02T09:55:09;24.00;1.00
2639;DHT22;1329;51.384;7.122;2022-09-02T09:57:44;24.00;1.00
2639;DHT22;1329;51.384;7.122;2022-09-02T10:00:18;24.00;1.00
2639;DHT22;1329;51.384;7.122;2022-09-02T10:02:58;24.00;1.00
2639;DHT22;1329;51.384;7.122;2022-09-02T10:05:31;24.10;1.00
2639;DHT22;1329;51.384;7.122;2022-09-02T10:08:03;24.20;1.00
2639;DHT22;1329;51.384;7.122;2022-09-02T10:10:32;24.20;1.00
2639;DHT22;1329;51.384;7.122;2022-09-02T10:13:19;24.20;1.00
2639;DHT22;1329;51.384;7.122;2022-09-02T10:16:03;24.30;1.00
2639;DHT22;1329;51.384;7.122;2022-09-02T10:19:00;24.30;1.00
2639;DHT22;1329;51.384;7.122;2022-09-02T10:21:43;24.40;1.00
2639;DHT22;1329;51.384;7.122;2022-09-02T10:24:36;24.40;1.00
2639;DHT22;1329;51.384;7.122;2022-09-02T10:27:14;24.40;1.00
2639;DHT22;1329;51.384;7.122;2022-09-02T10:32:53;24.50;1.00
2639;DHT22;1329;51.384;7.122;2022-09-02T10:35:37;24.60;1.00
2639;DHT22;1329;51.384;7.122;2022-09-02T10:38:16;24.70;1.00
2639;DHT22;1329;51.384;7.122;2022-09-02T10:41:31;24.70;1.00
2639;DHT22;1329;51.384;7.122;2022-09-02T10:44:26;24.80;1.00
2639;DHT22;1329;51.384;7.122;2022-09-02T10:47:05;24.80;1.00
2639;DHT22;1329;51.384;7.122;2022-09-02T10:49:47;24.90;1.00
2639;DHT22;1329;51.384;7.122;2022-09-02T10:52:33;24.90;1.00
2639;DHT22;1329;51.384;7.122;2022-09-02T10:55:15;25.00;1.00
2639;DHT22;1329;51.384;7.122;2022-09-02T10:57:51;25.00;1.00
2639;DHT22;1329;51.384;7.122;2022-09-02T11:00:21;25.00;1.00
2639;DHT22;1329;51.384;7.122;2022-09-02T11:02:52;25.10;1.00
2639;DHT22;1329;51.384;7.122;2022-09-02T11:05:27;25.20;1.00
2639;DHT22;1329;51.384;7.122;2022-09-02T11:08:01;25.20;1.00
2639;DHT22;1329;51.384;7.122;2022-09-02T11:10:33;25.30;1.00
2639;DHT22;1329;51.384;7.122;2022-09-02T11:13:07;25.30;1.00
2639;DHT22;1329;51.384;7.122;2022-09-02T11:15:44;25.40;1.00
2639;DHT22;1329;51.384;7.122;2022-09-02T11:18:24;25.40;1.00
2639;DHT22;1329;51.384;7.122;2022-09-02T11:21:02;25.50;1.00
2639;DHT22;1329;51.384;7.122;2022-09-02T11:23:37;25.50;1.00
2639;DHT22;1329;51.384;7.122;2022-09-02T11:26:15;25.50;1.00
2639;DHT22;1329;51.384;7.122;2022-09-02T11:28:49;25.60;1.00
2639;DHT22;1329;51.384;7.122;2022-09-02T11:31:26;25.60;1.00
2639;DHT22;1329;51.384;7.122;2022-09-02T11:33:59;25.60;1.00
2639;DHT22;1329;51.384;7.122;2022-09-02T11:36:30;25.60;1.00
2639;DHT22;1329;51.384;7.122;2022-09-02T11:39:04;25.60;1.00
2639;DHT22;1329;51.384;7.122;2022-09-02T11:41:54;25.70;1.00
2639;DHT22;1329;51.384;7.122;2022-09-02T11:44:57;25.70;1.00
2639;DHT22;1329;51.384;7.122;2022-09-02T11:48:05;25.80;1.00
2639;DHT22;1329;51.384;7.122;2022-09-02T11:51:26;25.90;1.00
2639;DHT22;1329;51.384;7.122;2022-09-02T11:54:04;25.90;1.00
2639;DHT22;1329;51.384;7.122;2022-09-02T11:56:37;26.00;1.00
2639;DHT22;1329;51.384;7.122;2022-09-02T11:59:07;26.00;1.00
2639;DHT22;1329;51.384;7.122;2022-09-02T12:01:49;26.10;1.00
2639;DHT22;1329;51.384;7.122;2022-09-02T12:04:21;26.10;1.00
2639;DHT22;1329;51.384;7.122;2022-09-02T12:09:55;26.10;1.00
2639;DHT22;1329;51.384;7.122;2022-09-02T12:15:28;26.10;1.00
2639;DHT22;1329;51.384;7.122;2022-09-02T12:18:25;26.10;1.00
2639;DHT22;1329;51.384;7.122;2022-09-02T12:21:06;26.10;1.00
2639;DHT22;1329;51.384;7.122;2022-09-02T12:24:19;26.10;1.00
2639;DHT22;1329;51.384;7.122;2022-09-02T12:27:18;26.20;1.00
2639;DHT22;1329;51.384;7.122;2022-09-02T12:29:50;26.20;1.00
2639;DHT22;1329;51.384;7.122;2022-09-02T12:35:32;26.30;1.00
2639;DHT22;1329;51.384;7.122;2022-09-02T12:38:35;26.30;1.00
2639;DHT22;1329;51.384;7.122;2022-09-02T12:41:23;26.40;1.00
2639;DHT22;1329;51.384;7.122;2022-09-02T12:47:01;26.50;1.00
2639;DHT22;1329;51.384;7.122;2022-09-02T12:49:45;26.60;1.00
2639;DHT22;1329;51.384;7.122;2022-09-02T12:52:44;26.80;1.00
2639;DHT22;1329;51.384;7.122;2022-09-02T12:55:17;26.90;1.00
2639;DHT22;1329;51.384;7.122;2022-09-02T12:57:50;26.80;1.00
2639;DHT22;1329;51.384;7.122;2022-09-02T13:00:25;26.80;1.00
2639;DHT22;1329;51.384;7.122;2022-09-02T13:03:18;26.80;1.00
2639;DHT22;1329;51.384;7.122;2022-09-02T13:06:00;26.80;1.00
2639;DHT22;1329;51.384;7.122;2022-09-02T13:12:10;26.80;1.00
2639;DHT22;1329;51.384;7.122;2022-09-02T13:15:21;26.90;1.00
2639;DHT22;1329;51.384;7.122;2022-09-02T13:18:23;27.10;1.00
2639;DHT22;1329;51.384;7.122;2022-09-02T13:21:26;27.30;1.00
2639;DHT22;1329;51.384;7.122;2022-09-02T13:27:41;27.60;1.00
2639;DHT22;1329;51.384;7.122;2022-09-02T13:30:20;27.80;1.00
2639;DHT22;1329;51.384;7.122;2022-09-02T13:33:00;27.90;1.00
2639;DHT22;1329;51.384;7.122;2022-09-02T13:35:37;28.10;1.00
2639;DHT22;1329;51.384;7.122;2022-09-02T13:38:09;28.20;1.00
2639;DHT22;1329;51.384;7.122;2022-09-02T13:40:38;28.30;1.00
2639;DHT22;1329;51.384;7.122;2022-09-02T13:43:16;28.50;1.00
2639;DHT22;1329;51.384;7.122;2022-09-02T13:45:47;28.70;1.00
2639;DHT22;1329;51.384;7.122;2022-09-02T13:48:17;28.70;1.00
2639;DHT22;1329;51.384;7.122;2022-09-02T13:50:47;28.90;1.00
2639;DHT22;1329;51.384;7.122;2022-09-02T13:53:23;29.00;1.00
2639;DHT22;1329;51.384;7.122;2022-09-02T13:55:55;29.00;1.00
2639;DHT22;1329;51.384;7.122;2022-09-02T13:58:32;29.10;1.00
2639;DHT22;1329;51.384;7.122;2022-09-02T14:01:21;29.10;1.00
2639;DHT22;1329;51.384;7.122;2022-09-02T14:03:53;29.10;1.00
2639;DHT22;1329;51.384;7.122;2022-09-02T14:06:24;29.10;1.00
2639;DHT22;1329;51.384;7.122;2022-09-02T14:08:55;29.00;1.00
2639;DHT22;1329;51.384;7.122;2022-09-02T14:11:26;28.90;1.00
2639;DHT22;1329;51.384;7.122;2022-09-02T14:13:58;28.80;1.00
2639;DHT22;1329;51.384;7.122;2022-09-02T14:16:33;28.80;1.00
2639;DHT22;1329;51.384;7.122;2022-09-02T14:19:06;28.70;1.00
2639;DHT22;1329;51.384;7.122;2022-09-02T14:21:48;28.60;1.00
2639;DHT22;1329;51.384;7.122;2022-09-02T14:24:25;28.50;1.00
2639;DHT22;1329;51.384;7.122;2022-09-02T14:27:00;28.30;1.00
2639;DHT22;1329;51.384;7.122;2022-09-02T14:29:30;28.20;1.00
2639;DHT22;1329;51.384;7.122;2022-09-02T14:32:13;28.10;1.00
2639;DHT22;1329;51.384;7.122;2022-09-02T14:34:43;28.10;1.00
2639;DHT22;1329;51.384;7.122;2022-09-02T14:37:18;28.00;1.00
2639;DHT22;1329;51.384;7.122;2022-09-02T14:39:52;28.00;1.00
2639;DHT22;1329;51.384;7.122;2022-09-02T14:42:29;28.10;1.00
2639;DHT22;1329;51.384;7.122;2022-09-02T14:44:57;28.10;1.00
2639;DHT22;1329;51.384;7.122;2022-09-02T14:47:26;28.20;1.00
2639;DHT22;1329;51.384;7.122;2022-09-02T14:49:55;28.30;1.00
2639;DHT22;1329;51.384;7.122;2022-09-02T14:52:25;28.50;1.00
2639;DHT22;1329;51.384;7.122;2022-09-02T14:54:55;28.50;1.00
2639;DHT22;1329;51.384;7.122;2022-09-02T14:57:25;28.60;1.00
2639;DHT22;1329;51.384;7.122;2022-09-02T14:59:55;28.80;1.00
2639;DHT22;1329;51.384;7.122;2022-09-02T15:02:31;28.90;1.00
2639;DHT22;1329;51.384;7.122;2022-09-02T15:05:04;28.90;1.00
2639;DHT22;1329;51.384;7.122;2022-09-02T15:07:33;28.90;1.00
2639;DHT22;1329;51.384;7.122;2022-09-02T15:10:03;28.80;1.00
2639;DHT22;1329;51.384;7.122;2022-09-02T15:12:38;28.80;1.00
2639;DHT22;1329;51.384;7.122;2022-09-02T15:15:09;28.80;1.00
2639;DHT22;1329;51.384;7.122;2022-09-02T15:17:38;28.80;1.00
2639;DHT22;1329;51.384;7.122;2022-09-02T15:20:06;28.80;1.00
2639;DHT22;1329;51.384;7.122;2022-09-02T15:22:35;28.90;1.00
2639;DHT22;1329;51.384;7.122;2022-09-02T15:25:03;28.90;1.00
2639;DHT22;1329;51.384;7.122;2022-09-02T15:27:36;29.00;1.00
2639;DHT22;1329;51.384;7.122;2022-09-02T15:30:05;29.00;1.00
2639;DHT22;1329;51.384;7.122;2022-09-02T15:32:34;29.00;1.00
2639;DHT22;1329;51.384;7.122;2022-09-02T15:35:06;29.00;1.00
2639;DHT22;1329;51.384;7.122;2022-09-02T15:37:34;28.90;1.00
2639;DHT22;1329;51.384;7.122;2022-09-02T15:40:03;28.80;1.00
2639;DHT22;1329;51.384;7.122;2022-09-02T15:42:33;28.80;1.00
2639;DHT22;1329;51.384;7.122;2022-09-02T15:45:02;28.60;1.00
2639;DHT22;1329;51.384;7.122;2022-09-02T15:47:34;28.50;1.00
2639;DHT22;1329;51.384;7.122;2022-09-02T15:50:04;28.30;1.00
2639;DHT22;1329;51.384;7.122;2022-09-02T15:52:32;28.20;1.00
2639;DHT22;1329;51.384;7.122;2022-09-02T15:55:00;28.00;1.00
2639;DHT22;1329;51.384;7.122;2022-09-02T15:57:28;27.80;1.00
2639;DHT22;1329;51.384;7.122;2022-09-02T15:59:56;27.80;1.00
2639;DHT22;1329;51.384;7.122;2022-09-02T16:02:25;27.70;1.00
2639;DHT22;1329;51.384;7.122;2022-09-02T16:04:52;27.70;1.00
2639;DHT22;1329;51.384;7.122;2022-09-02T16:07:22;27.70;1.00
2639;DHT22;1329;51.384;7.122;2022-09-02T16:09:49;27.80;1.00
2639;DHT22;1329;51.384;7.122;2022-09-02T16:12:16;27.90;1.00
2639;DHT22;1329;51.384;7.122;2022-09-02T16:14:44;27.90;1.00
2639;DHT22;1329;51.384;7.122;2022-09-02T16:17:15;28.00;1.00
2639;DHT22;1329;51.384;7.122;2022-09-02T16:19:43;28.10;1.00
2639;DHT22;1329;51.384;7.122;2022-09-02T16:22:11;28.20;1.00
2639;DHT22;1329;51.384;7.122;2022-09-02T16:24:39;28.30;1.00
2639;DHT22;1329;51.384;7.122;2022-09-02T16:27:07;28.40;1.00
2639;DHT22;1329;51.384;7.122;2022-09-02T16:29:34;28.40;1.00
2639;DHT22;1329;51.384;7.122;2022-09-02T16:32:04;28.50;1.00
2639;DHT22;1329;51.384;7.122;2022-09-02T16:34:32;28.50;1.00
2639;DHT22;1329;51.384;7.122;2022-09-02T16:36:59;28.50;1.00
2639;DHT22;1329;51.384;7.122;2022-09-02T16:39:29;28.50;1.00
2639;DHT22;1329;51.384;7.122;2022-09-02T16:41:58;28.40;1.00
2639;DHT22;1329;51.384;7.122;2022-09-02T16:44:29;28.40;1.00
2639;DHT22;1329;51.384;7.122;2022-09-02T16:47:01;28.30;1.00
2639;DHT22;1329;51.384;7.122;2022-09-02T16:49:30;28.20;1.00
2639;DHT22;1329;51.384;7.122;2022-09-02T16:54:34;28.10;1.00
2639;DHT22;1329;51.384;7.122;2022-09-02T16:57:04;28.10;1.00
2639;DHT22;1329;51.384;7.122;2022-09-02T16:59:32;28.00;1.00
2639;DHT22;1329;51.384;7.122;2022-09-02T17:01:59;27.90;1.00
2639;DHT22;1329;51.384;7.122;2022-09-02T17:04:27;27.90;1.00
2639;DHT22;1329;51.384;7.122;2022-09-02T17:06:54;27.80;1.00
2639;DHT22;1329;51.384;7.122;2022-09-02T17:09:22;27.70;1.00
2639;DHT22;1329;51.384;7.122;2022-09-02T17:11:49;27.70;1.00
2639;DHT22;1329;51.384;7.122;2022-09-02T17:14:18;27.50;1.00
2639;DHT22;1329;51.384;7.122;2022-09-02T17:16:47;27.40;1.00